Time;durP1;ratioP1;P1;durP2;ratioP2;P2;SDS_P1;SDS_P2;PMS_P1;PMS_P2;Temp;Humidity;BMP_temperature;BMP_pressure;BME280_temperature;BME280_humidity;BME280_pressure;Samples;Min_cycle;Max_cycle;Signal;HPM_P1;HPM_P2
2024/04/06 00:02:04;;;;;;;3.53;1.40;;;;;;;;;;4955740;28;101962;-47
2024/04/06 00:04:30;;;;;;;3.58;1.50;;;;;;;;;;4955035;28;100217;-47
2024/04/06 00:06:56;;;;;;;4.03;1.25;;;;;;;;;;4942860;28;100392;-47
2024/04/06 00:09:22;;;;;;;2.97;1.17;;;;;;;;;;4959658;28;99705;-50
2024/04/06 00:11:47;;;;;;;3.15;1.63;;;;;;;;;;4957139;28;100074;-54
2024/04/06 00:14:13;;;;;;;4.20;0.98;;;;;;;;;;4958503;28;100023;-47
2024/04/06 00:16:38;;;;;;;2.80;1.33;;;;;;;;;;4955259;28;100331;-47
2024/04/06 00:19:03;;;;;;;5.00;1.02;;;;;;;;;;4952595;28;101666;-46
2024/04/06 00:21:29;;;;;;;3.83;1.10;;;;;;;;;;4957178;28;100148;-47
2024/04/06 00:23:54;;;;;;;2.40;1.25;;;;;;;;;;4956469;28;101961;-47
2024/04/06 00:26:19;;;;;;;3.13;1.10;;;;;;;;;;4954300;28;105852;-47
2024/04/06 00:28:45;;;;;;;3.50;1.20;;;;;;;;;;4958686;28;99735;-47
2024/04/06 00:31:10;;;;;;;3.78;1.10;;;;;;;;;;4955051;28;101944;-47
2024/04/06 00:33:35;;;;;;;4.60;1.50;;;;;;;;;;4948785;28;100123;-51
2024/04/06 00:36:01;;;;;;;3.35;1.27;;;;;;;;;;4954046;28;100165;-52
2024/04/06 00:38:26;;;;;;;4.63;1.42;;;;;;;;;;4957608;28;103355;-47
2024/04/06 00:40:52;;;;;;;5.40;1.73;;;;;;;;;;4955188;28;99812;-47
2024/04/06 00:43:17;;;;;;;5.88;1.58;;;;;;;;;;4957064;28;100247;-47
2024/04/06 00:45:43;;;;;;;7.80;1.30;;;;;;;;;;4949513;28;100447;-47
2024/04/06 00:48:09;;;;;;;4.72;1.50;;;;;;;;;;4953277;28;99955;-52
2024/04/06 00:50:35;;;;;;;3.70;1.38;;;;;;;;;;4959906;28;100305;-51
2024/04/06 00:53:00;;;;;;;5.78;1.90;;;;;;;;;;4955481;28;100404;-47
2024/04/06 00:55:26;;;;;;;2.00;1.20;;;;;;;;;;4954950;28;100554;-46
2024/04/06 00:57:51;;;;;;;2.85;1.00;;;;;;;;;;4958360;28;100162;-47
2024/04/06 01:00:17;;;;;;;4.75;1.23;;;;;;;;;;4955933;28;99731;-46
2024/04/06 01:02:42;;;;;;;3.15;1.00;;;;;;;;;;4950238;28;100236;-53
2024/04/06 01:05:08;;;;;;;3.38;1.00;;;;;;;;;;4953041;28;100103;-51
2024/04/06 01:07:33;;;;;;;2.42;1.20;;;;;;;;;;4955347;28;100236;-46
2024/04/06 01:09:59;;;;;;;2.08;1.20;;;;;;;;;;4951476;28;100305;-46
2024/04/06 01:12:25;;;;;;;2.63;0.93;;;;;;;;;;4954696;28;100573;-47
2024/04/06 01:14:50;;;;;;;4.00;1.35;;;;;;;;;;4958708;28;101319;-46
2024/04/06 01:17:18;;;;;;;6.63;1.20;;;;;;;;;;4935377;28;101430;-46
2024/04/06 01:19:44;;;;;;;1.73;0.82;;;;;;;;;;4945254;28;99909;-46
2024/04/06 01:22:09;;;;;;;2.38;1.17;;;;;;;;;;4964030;28;100368;-46
2024/04/06 01:24:34;;;;;;;2.95;1.05;;;;;;;;;;4950595;28;100113;-51
2024/04/06 01:27:00;;;;;;;2.90;1.00;;;;;;;;;;4951748;28;99648;-54
2024/04/06 01:29:27;;;;;;;2.30;1.23;;;;;;;;;;4962596;28;100764;-46
2024/04/06 01:31:53;;;;;;;3.38;1.10;;;;;;;;;;4953850;28;100180;-46
2024/04/06 01:34:18;;;;;;;4.70;1.50;;;;;;;;;;4966168;28;100045;-46
2024/04/06 01:36:44;;;;;;;5.63;1.30;;;;;;;;;;4950060;28;100144;-47
2024/04/06 01:39:11;;;;;;;2.65;1.10;;;;;;;;;;4959976;28;99994;-53
2024/04/06 01:41:37;;;;;;;3.90;1.15;;;;;;;;;;4950552;28;100207;-51
2024/04/06 01:44:03;;;;;;;2.38;1.17;;;;;;;;;;4949167;28;100198;-46
2024/04/06 01:46:29;;;;;;;4.03;1.23;;;;;;;;;;4952791;28;100035;-46
2024/04/06 01:48:55;;;;;;;3.45;1.13;;;;;;;;;;4955783;28;100266;-47
2024/04/06 01:51:20;;;;;;;3.58;1.05;;;;;;;;;;4954644;28;100405;-46
2024/04/06 01:53:46;;;;;;;2.67;1.08;;;;;;;;;;4949377;28;99774;-47
2024/04/06 01:56:11;;;;;;;2.00;0.88;;;;;;;;;;4952901;28;105661;-47
2024/04/06 01:58:37;;;;;;;4.55;1.38;;;;;;;;;;4956534;28;100134;-46
2024/04/06 02:01:02;;;;;;;3.17;1.00;;;;;;;;;;4958912;28;101209;-46
2024/04/06 02:03:28;;;;;;;5.30;1.25;;;;;;;;;;4956315;28;100250;-47
2024/04/06 02:05:56;;;;;;;2.90;1.08;;;;;;;;;;4952693;28;99875;-46
2024/04/06 02:08:21;;;;;;;3.90;1.02;;;;;;;;;;4957573;28;100183;-52
2024/04/06 02:10:46;;;;;;;3.17;1.17;;;;;;;;;;4956624;28;100177;-53
2024/04/06 02:13:11;;;;;;;3.70;1.17;;;;;;;;;;4953010;28;100274;-54
2024/04/06 02:15:39;;;;;;;4.70;0.93;;;;;;;;;;4955700;28;100640;-52
2024/04/06 02:18:04;;;;;;;3.70;0.90;;;;;;;;;;4961158;28;100157;-46
2024/04/06 02:20:29;;;;;;;2.60;0.80;;;;;;;;;;4958133;28;100223;-47
2024/04/06 02:22:55;;;;;;;3.45;1.58;;;;;;;;;;4950874;28;101498;-46
2024/04/06 02:25:20;;;;;;;1.83;0.80;;;;;;;;;;4958812;28;99864;-46
2024/04/06 02:27:45;;;;;;;3.00;1.15;;;;;;;;;;4945998;28;100167;-53
2024/04/06 02:30:11;;;;;;;2.75;0.88;;;;;;;;;;4958327;28;101583;-51
2024/04/06 02:32:36;;;;;;;3.22;0.90;;;;;;;;;;4951556;28;99972;-46
2024/04/06 02:35:01;;;;;;;2.40;0.68;;;;;;;;;;4954167;28;101072;-47
2024/04/06 02:37:26;;;;;;;4.90;0.80;;;;;;;;;;4965150;28;100089;-47
2024/04/06 02:39:52;;;;;;;3.67;0.70;;;;;;;;;;4954036;28;100328;-47
2024/04/06 02:42:17;;;;;;;1.45;0.70;;;;;;;;;;4958484;28;100021;-46
2024/04/06 02:44:43;;;;;;;3.65;0.75;;;;;;;;;;4947187;28;99710;-46
2024/04/06 02:47:08;;;;;;;2.80;0.95;;;;;;;;;;4959141;28;101225;-46
2024/04/06 02:49:33;;;;;;;2.50;0.90;;;;;;;;;;4958281;28;100294;-47
2024/04/06 02:51:59;;;;;;;1.92;0.90;;;;;;;;;;4952628;28;100198;-46
2024/04/06 02:54:24;;;;;;;5.55;1.10;;;;;;;;;;4951733;28;100574;-47
2024/04/06 02:56:50;;;;;;;3.58;0.90;;;;;;;;;;4955907;28;100069;-46
2024/04/06 02:59:15;;;;;;;2.40;0.75;;;;;;;;;;4964309;28;101093;-47
2024/04/06 03:01:40;;;;;;;1.00;0.55;;;;;;;;;;4955633;28;101558;-47
2024/04/06 03:04:06;;;;;;;1.27;0.60;;;;;;;;;;4952505;28;100000;-45
2024/04/06 03:06:31;;;;;;;2.83;0.70;;;;;;;;;;4952110;28;100213;-47
2024/04/06 03:08:56;;;;;;;1.83;0.55;;;;;;;;;;4955720;28;103470;-46
2024/04/06 03:11:22;;;;;;;3.90;0.68;;;;;;;;;;4957498;28;99897;-45
2024/04/06 03:13:48;;;;;;;4.65;0.88;;;;;;;;;;4954909;28;100140;-45
2024/04/06 03:16:13;;;;;;;1.52;0.50;;;;;;;;;;4957269;28;101056;-45
2024/04/06 03:18:38;;;;;;;1.52;0.60;;;;;;;;;;4956827;28;99660;-45
2024/04/06 03:21:04;;;;;;;3.03;0.60;;;;;;;;;;4954783;28;100272;-45
2024/04/06 03:23:30;;;;;;;3.85;0.50;;;;;;;;;;4951401;28;99980;-45
2024/04/06 03:25:55;;;;;;;1.73;0.82;;;;;;;;;;4956365;28;100445;-45
2024/04/06 03:28:20;;;;;;;2.22;0.57;;;;;;;;;;4956713;28;100395;-45
2024/04/06 03:30:45;;;;;;;3.17;0.90;;;;;;;;;;4955314;28;100643;-45
2024/04/06 03:33:11;;;;;;;3.63;0.77;;;;;;;;;;4958263;28;103300;-45
2024/04/06 03:35:36;;;;;;;2.88;0.75;;;;;;;;;;4956550;28;100201;-45
2024/04/06 03:38:01;;;;;;;3.70;0.60;;;;;;;;;;4951948;28;100055;-45
2024/04/06 03:40:27;;;;;;;2.20;0.50;;;;;;;;;;4945545;28;101279;-45
2024/04/06 03:42:54;;;;;;;4.95;0.57;;;;;;;;;;4957406;28;104353;-45
2024/04/06 03:45:19;;;;;;;3.40;0.80;;;;;;;;;;4949213;28;100265;-45
2024/04/06 03:47:44;;;;;;;2.15;0.40;;;;;;;;;;4951975;28;100063;-45
2024/04/06 03:50:10;;;;;;;2.67;0.52;;;;;;;;;;4957047;28;99752;-45
2024/04/06 03:52:36;;;;;;;4.60;0.32;;;;;;;;;;4956112;28;100665;-45
2024/04/06 03:55:01;;;;;;;2.40;0.45;;;;;;;;;;4953874;28;102995;-45
2024/04/06 03:57:26;;;;;;;4.30;0.55;;;;;;;;;;4952298;28;99941;-44
2024/04/06 03:59:52;;;;;;;3.10;0.40;;;;;;;;;;4954824;28;100222;-44
2024/04/06 04:02:17;;;;;;;1.08;0.40;;;;;;;;;;4957518;28;100154;-44
2024/04/06 04:04:42;;;;;;;1.27;0.50;;;;;;;;;;4960938;28;100138;-45
2024/04/06 04:07:08;;;;;;;1.42;0.60;;;;;;;;;;4963812;28;100157;-44
2024/04/06 04:09:34;;;;;;;2.60;0.60;;;;;;;;;;4949810;28;99937;-44
2024/04/06 04:11:59;;;;;;;2.05;0.45;;;;;;;;;;4928685;28;101415;-45
2024/04/06 04:14:25;;;;;;;1.20;0.30;;;;;;;;;;4958039;28;101300;-45
2024/04/06 04:16:50;;;;;;;1.95;0.60;;;;;;;;;;4951461;28;102252;-45
2024/04/06 04:19:15;;;;;;;3.03;0.50;;;;;;;;;;4960145;28;100342;-45
2024/04/06 04:21:40;;;;;;;1.55;0.60;;;;;;;;;;4959716;28;100380;-45
2024/04/06 04:24:06;;;;;;;2.70;0.57;;;;;;;;;;4961433;28;100125;-45
2024/04/06 04:26:31;;;;;;;2.22;0.57;;;;;;;;;;4963167;28;100113;-45
2024/04/06 04:28:56;;;;;;;1.77;0.40;;;;;;;;;;4961788;28;100031;-45
2024/04/06 04:31:22;;;;;;;2.97;0.45;;;;;;;;;;4960536;28;100353;-45
2024/04/06 04:33:47;;;;;;;3.13;0.40;;;;;;;;;;4961126;28;100367;-45
2024/04/06 04:36:13;;;;;;;1.83;0.40;;;;;;;;;;4962029;28;99993;-45
2024/04/06 04:38:39;;;;;;;3.22;0.73;;;;;;;;;;4960858;28;100458;-45
2024/04/06 04:41:04;;;;;;;5.30;0.90;;;;;;;;;;4959655;28;100059;-45
2024/04/06 04:43:29;;;;;;;1.95;0.50;;;;;;;;;;4938343;28;100211;-50
2024/04/06 04:45:55;;;;;;;4.30;0.70;;;;;;;;;;4964979;28;100147;-52
2024/04/06 04:48:20;;;;;;;1.90;0.43;;;;;;;;;;4955170;28;100027;-45
2024/04/06 04:50:45;;;;;;;2.83;0.60;;;;;;;;;;4959751;28;101175;-45
2024/04/06 04:53:11;;;;;;;3.25;0.55;;;;;;;;;;4960001;28;100204;-45
2024/04/06 04:55:37;;;;;;;2.70;0.50;;;;;;;;;;4961294;28;100030;-45
2024/04/06 04:58:03;;;;;;;3.08;0.68;;;;;;;;;;4953836;28;100388;-45
2024/04/06 05:00:28;;;;;;;1.70;0.32;;;;;;;;;;4954782;28;100200;-45
2024/04/06 05:02:53;;;;;;;3.25;1.08;;;;;;;;;;4958847;28;99954;-50
2024/04/06 05:05:19;;;;;;;2.42;0.40;;;;;;;;;;4957433;28;100192;-52
2024/04/06 05:07:44;;;;;;;2.78;0.60;;;;;;;;;;4952619;28;100620;-45
2024/04/06 05:10:09;;;;;;;1.67;0.63;;;;;;;;;;4946499;28;103071;-45
2024/04/06 05:12:35;;;;;;;3.15;0.50;;;;;;;;;;4955307;28;99994;-45
2024/04/06 05:15:01;;;;;;;2.15;0.55;;;;;;;;;;4962612;28;99852;-44
2024/04/06 05:17:26;;;;;;;2.30;0.45;;;;;;;;;;4951337;28;100129;-45
2024/04/06 05:19:52;;;;;;;4.35;0.40;;;;;;;;;;4960236;28;101515;-45
2024/04/06 05:22:17;;;;;;;3.88;0.50;;;;;;;;;;4951759;28;99951;-44
2024/04/06 05:24:43;;;;;;;4.70;0.63;;;;;;;;;;4950543;28;100232;-45
2024/04/06 05:27:08;;;;;;;2.78;0.70;;;;;;;;;;4953294;28;100147;-45
2024/04/06 05:29:33;;;;;;;4.63;0.90;;;;;;;;;;4959919;28;99856;-50
2024/04/06 05:31:58;;;;;;;1.90;0.45;;;;;;;;;;4953137;28;100148;-49
2024/04/06 05:34:24;;;;;;;2.30;0.63;;;;;;;;;;4964364;28;99675;-45
2024/04/06 05:36:51;;;;;;;1.02;0.40;;;;;;;;;;4896791;28;103674;-45
2024/04/06 05:39:17;;;;;;;2.45;0.55;;;;;;;;;;4956882;28;100265;-45
2024/04/06 05:41:42;;;;;;;1.80;0.75;;;;;;;;;;4960403;28;100055;-45
2024/04/06 05:44:07;;;;;;;1.98;0.43;;;;;;;;;;4962839;28;100355;-45
2024/04/06 05:46:33;;;;;;;3.22;0.50;;;;;;;;;;4959273;28;100086;-45
2024/04/06 05:49:00;;;;;;;2.20;0.40;;;;;;;;;;4959064;28;99952;-47
2024/04/06 05:51:27;;;;;;;2.58;0.45;;;;;;;;;;4963762;28;100210;-45
2024/04/06 05:53:53;;;;;;;1.77;0.47;;;;;;;;;;4961672;28;100159;-45
2024/04/06 05:56:18;;;;;;;1.05;0.30;;;;;;;;;;4955776;28;102070;-45
2024/04/06 05:58:43;;;;;;;1.33;0.40;;;;;;;;;;4960395;28;102412;-45
2024/04/06 06:01:09;;;;;;;2.72;0.50;;;;;;;;;;4957177;28;99946;-45
2024/04/06 06:03:34;;;;;;;3.13;0.32;;;;;;;;;;4960110;28;100227;-44
2024/04/06 06:06:00;;;;;;;3.22;0.80;;;;;;;;;;4956986;28;100194;-45
2024/04/06 06:08:25;;;;;;;2.17;0.40;;;;;;;;;;4949108;28;102025;-45
2024/04/06 06:10:50;;;;;;;2.72;0.43;;;;;;;;;;4954506;28;101530;-45
2024/04/06 06:13:15;;;;;;;1.83;0.35;;;;;;;;;;4953455;28;102271;-45
2024/04/06 06:15:41;;;;;;;3.47;0.40;;;;;;;;;;4953028;28;100330;-47
2024/04/06 06:18:07;;;;;;;3.90;0.20;;;;;;;;;;4953126;28;101070;-47
2024/04/06 06:20:32;;;;;;;3.17;0.38;;;;;;;;;;4954826;28;102219;-47
2024/04/06 06:22:58;;;;;;;3.15;0.43;;;;;;;;;;4951823;28;100429;-48
2024/04/06 06:25:24;;;;;;;2.00;0.40;;;;;;;;;;4950856;28;100017;-48
2024/04/06 06:27:50;;;;;;;2.72;0.30;;;;;;;;;;4951913;28;101362;-48
2024/04/06 06:30:16;;;;;;;1.83;0.40;;;;;;;;;;4956500;28;100231;-46
2024/04/06 06:32:41;;;;;;;2.53;0.52;;;;;;;;;;4956639;28;100352;-50
2024/04/06 06:35:07;;;;;;;3.00;0.30;;;;;;;;;;4959809;28;99877;-50
2024/04/06 06:37:35;;;;;;;2.50;0.38;;;;;;;;;;4946736;28;102298;-46
2024/04/06 06:40:01;;;;;;;3.07;0.60;;;;;;;;;;4948601;28;99823;-46
2024/04/06 06:42:26;;;;;;;4.15;0.60;;;;;;;;;;4959328;28;100455;-46
2024/04/06 06:44:52;;;;;;;2.05;0.40;;;;;;;;;;4961615;28;100059;-45
2024/04/06 06:47:17;;;;;;;6.38;0.63;;;;;;;;;;4961545;28;99810;-46
2024/04/06 06:49:43;;;;;;;1.33;0.35;;;;;;;;;;4953058;28;100742;-47
2024/04/06 06:52:08;;;;;;;1.42;0.30;;;;;;;;;;4941064;28;101235;-46
2024/04/06 06:54:33;;;;;;;2.65;0.57;;;;;;;;;;4946182;28;99813;-47
2024/04/06 06:56:59;;;;;;;2.15;0.40;;;;;;;;;;4960227;28;101139;-46
2024/04/06 06:59:24;;;;;;;4.78;0.63;;;;;;;;;;4949547;28;99835;-46
2024/04/06 07:01:49;;;;;;;2.90;0.45;;;;;;;;;;4954196;28;100377;-46
2024/04/06 07:04:15;;;;;;;2.92;0.60;;;;;;;;;;4954724;28;100405;-46
2024/04/06 07:06:41;;;;;;;7.05;0.70;;;;;;;;;;4952905;28;100459;-43
2024/04/06 07:09:07;;;;;;;2.67;0.57;;;;;;;;;;4949318;28;101075;-43
2024/04/06 07:11:32;;;;;;;3.13;0.25;;;;;;;;;;4955923;28;100168;-43
2024/04/06 07:13:57;;;;;;;1.15;0.40;;;;;;;;;;4953610;28;99991;-43
2024/04/06 07:16:25;;;;;;;2.97;0.60;;;;;;;;;;4954687;28;100287;-44
2024/04/06 07:18:50;;;;;;;2.60;0.40;;;;;;;;;;4943029;28;100086;-43
2024/04/06 07:21:17;;;;;;;2.63;0.45;;;;;;;;;;4957941;28;100419;-44
2024/04/06 07:23:42;;;;;;;1.92;0.30;;;;;;;;;;4954522;28;100213;-43
2024/04/06 07:26:08;;;;;;;5.05;0.52;;;;;;;;;;4955298;28;101687;-43
2024/04/06 07:28:36;;;;;;;5.35;0.30;;;;;;;;;;4959788;28;100214;-44
2024/04/06 07:31:01;;;;;;;1.50;0.40;;;;;;;;;;4955121;28;100231;-44
2024/04/06 07:33:27;;;;;;;1.88;0.50;;;;;;;;;;4951524;28;100414;-44
2024/04/06 07:35:52;;;;;;;0.93;0.20;;;;;;;;;;4959039;28;100312;-44
2024/04/06 07:38:18;;;;;;;1.30;0.30;;;;;;;;;;4956482;28;101260;-51
2024/04/06 07:40:43;;;;;;;0.77;0.20;;;;;;;;;;4960013;28;100799;-51
2024/04/06 07:43:08;;;;;;;2.42;0.30;;;;;;;;;;4953309;28;100103;-47
2024/04/06 07:45:34;;;;;;;1.58;0.30;;;;;;;;;;4955383;28;100229;-46
2024/04/06 07:47:59;;;;;;;1.30;0.30;;;;;;;;;;4952239;28;102043;-46
2024/04/06 07:50:24;;;;;;;0.82;0.20;;;;;;;;;;4953653;28;100216;-47
2024/04/06 07:52:50;;;;;;;4.22;0.45;;;;;;;;;;4957297;28;99962;-47
2024/04/06 07:55:15;;;;;;;1.85;0.32;;;;;;;;;;4958505;28;100849;-47
2024/04/06 07:57:41;;;;;;;1.20;0.20;;;;;;;;;;4958482;28;102161;-47
2024/04/06 08:00:07;;;;;;;6.20;0.30;;;;;;;;;;4957354;28;99909;-47
2024/04/06 08:02:33;;;;;;;0.85;0.20;;;;;;;;;;4955313;28;101655;-46
2024/04/06 08:04:58;;;;;;;6.45;0.38;;;;;;;;;;4960518;28;100224;-47
2024/04/06 08:07:24;;;;;;;3.25;0.25;;;;;;;;;;4957938;28;100315;-47
2024/04/06 08:09:50;;;;;;;0.43;0.20;;;;;;;;;;4955977;28;100298;-47
2024/04/06 08:12:15;;;;;;;4.72;0.40;;;;;;;;;;4953829;28;102251;-47
2024/04/06 08:14:40;;;;;;;2.53;0.25;;;;;;;;;;4950216;28;100556;-47
2024/04/06 08:17:06;;;;;;;1.10;0.35;;;;;;;;;;4950325;28;100738;-47
2024/04/06 08:19:31;;;;;;;3.28;0.28;;;;;;;;;;4957019;28;99908;-47
2024/04/06 08:21:56;;;;;;;2.13;0.20;;;;;;;;;;4951703;28;100712;-48
2024/04/06 08:24:22;;;;;;;0.95;0.20;;;;;;;;;;4952507;28;100669;-47
2024/04/06 08:26:47;;;;;;;2.25;0.20;;;;;;;;;;4954946;28;100788;-47
2024/04/06 08:29:13;;;;;;;1.73;0.45;;;;;;;;;;4958979;28;100134;-47
2024/04/06 08:31:38;;;;;;;3.75;0.40;;;;;;;;;;4947926;28;100206;-47
2024/04/06 08:34:04;;;;;;;1.20;0.30;;;;;;;;;;4946749;28;100333;-47
2024/04/06 08:36:29;;;;;;;2.92;0.52;;;;;;;;;;4954397;28;100163;-47
2024/04/06 08:38:54;;;;;;;3.08;0.38;;;;;;;;;;4956784;28;101993;-47
2024/04/06 08:41:22;;;;;;;3.35;0.20;;;;;;;;;;4953811;28;101571;-47
2024/04/06 08:43:54;;;;;;;2.38;0.22;;;;;;;;;;4960461;28;99879;-47
2024/04/06 08:46:20;;;;;;;3.03;0.30;;;;;;;;;;4946361;28;102679;-48
2024/04/06 08:48:48;;;;;;;3.33;0.88;;;;;;;;;;4947088;28;100571;-44
2024/04/06 08:51:19;;;;;;;2.85;0.80;;;;;;;;;;4952233;28;100478;-44
2024/04/06 08:53:45;;;;;;;2.90;0.50;;;;;;;;;;4953482;28;100326;-44
2024/04/06 08:56:15;;;;;;;2.60;0.73;;;;;;;;;;4899071;28;103532;-44
2024/04/06 08:58:41;;;;;;;2.70;0.40;;;;;;;;;;4954411;28;100494;-44
2024/04/06 09:01:06;;;;;;;1.40;0.55;;;;;;;;;;4954483;28;100328;-52
2024/04/06 09:03:32;;;;;;;1.63;0.10;;;;;;;;;;4960671;28;100490;-52
2024/04/06 09:06:00;;;;;;;3.22;0.20;;;;;;;;;;4948254;28;100248;-52
2024/04/06 09:08:26;;;;;;;2.13;0.20;;;;;;;;;;4954002;28;103350;-52
2024/04/06 09:10:57;;;;;;;1.75;0.20;;;;;;;;;;4956596;28;102372;-52
2024/04/06 09:13:22;;;;;;;2.50;0.20;;;;;;;;;;4963147;28;100223;-52
2024/04/06 09:15:48;;;;;;;2.75;0.25;;;;;;;;;;4954861;28;100053;-52
2024/04/06 09:18:13;;;;;;;2.15;0.10;;;;;;;;;;4961380;28;101141;-52
2024/04/06 09:20:39;;;;;;;2.03;0.20;;;;;;;;;;4955344;28;100201;-51
2024/04/06 09:23:05;;;;;;;0.47;0.20;;;;;;;;;;4953694;28;102336;-52
2024/04/06 09:25:30;;;;;;;1.08;0.60;;;;;;;;;;4959752;28;100051;-53
2024/04/06 09:27:56;;;;;;;1.08;0.30;;;;;;;;;;4947973;28;100201;-52
2024/04/06 09:30:29;;;;;;;1.40;0.20;;;;;;;;;;4955563;28;99892;-51
2024/04/06 09:32:56;;;;;;;1.15;0.20;;;;;;;;;;4934765;28;103244;-52
2024/04/06 09:35:21;;;;;;;1.35;0.22;;;;;;;;;;4940776;28;102749;-52
2024/04/06 09:37:50;;;;;;;1.55;0.20;;;;;;;;;;4957078;28;101847;-51
2024/04/06 09:40:15;;;;;;;0.93;0.10;;;;;;;;;;4950232;28;100532;-51
2024/04/06 09:42:44;;;;;;;2.03;0.17;;;;;;;;;;4949738;28;100012;-52
2024/04/06 09:45:10;;;;;;;1.13;0.20;;;;;;;;;;4947021;28;100417;-52
2024/04/06 09:47:37;;;;;;;1.63;0.20;;;;;;;;;;4949652;28;100780;-52
2024/04/06 09:50:04;;;;;;;1.33;0.20;;;;;;;;;;4947753;28;99991;-52
2024/04/06 09:52:29;;;;;;;1.35;0.20;;;;;;;;;;4947698;28;100525;-52
2024/04/06 09:54:55;;;;;;;2.85;0.22;;;;;;;;;;4953377;28;100838;-51
2024/04/06 09:57:23;;;;;;;1.38;0.20;;;;;;;;;;4956386;28;100011;-51
2024/04/06 09:59:59;;;;;;;3.45;0.30;;;;;;;;;;4957138;28;100437;-51
2024/04/06 10:02:24;;;;;;;1.98;0.38;;;;;;;;;;4951033;28;100139;-52
2024/04/06 10:04:56;;;;;;;0.47;0.20;;;;;;;;;;4956688;28;101316;-52
2024/04/06 10:07:29;;;;;;;2.17;0.20;;;;;;;;;;4954199;28;100168;-51
2024/04/06 10:10:06;;;;;;;1.13;0.20;;;;;;;;;;4955623;28;101012;-52
2024/04/06 10:12:40;;;;;;;3.55;0.20;;;;;;;;;;4953473;28;100274;-51
2024/04/06 10:15:08;;;;;;;1.13;0.20;;;;;;;;;;4953276;28;100247;-51
2024/04/06 10:17:41;;;;;;;2.03;0.10;;;;;;;;;;4948035;28;100020;-52
2024/04/06 10:20:09;;;;;;;1.88;0.20;;;;;;;;;;4960635;28;100101;-52
2024/04/06 10:22:43;;;;;;;0.93;0.10;;;;;;;;;;4958875;28;100157;-52
2024/04/06 10:25:09;;;;;;;1.23;0.10;;;;;;;;;;4958327;28;101187;-52
2024/04/06 10:27:38;;;;;;;3.80;0.38;;;;;;;;;;4960712;28;103398;-52
2024/04/06 10:30:05;;;;;;;2.43;0.10;;;;;;;;;;4937760;28;101362;-52
2024/04/06 10:32:33;;;;;;;3.53;0.20;;;;;;;;;;4964243;28;99983;-52
2024/04/06 10:35:01;;;;;;;4.32;0.40;;;;;;;;;;4949307;28;99842;-53
2024/04/06 10:37:27;;;;;;;1.73;0.30;;;;;;;;;;4942722;28;99971;-52
2024/04/06 10:39:52;;;;;;;3.38;0.20;;;;;;;;;;4958671;28;102038;-53
2024/04/06 10:42:18;;;;;;;2.22;0.13;;;;;;;;;;4954520;28;100122;-53
2024/04/06 10:44:43;;;;;;;2.80;0.30;;;;;;;;;;4957236;28;99788;-53
2024/04/06 10:47:09;;;;;;;1.40;0.22;;;;;;;;;;4958265;28;107730;-54
2024/04/06 10:49:34;;;;;;;2.15;0.20;;;;;;;;;;4958420;28;100128;-54
2024/04/06 10:52:00;;;;;;;2.97;0.30;;;;;;;;;;4943430;28;100152;-54
2024/04/06 10:54:26;;;;;;;2.45;0.25;;;;;;;;;;4949972;28;102041;-51
2024/04/06 10:56:52;;;;;;;1.48;0.20;;;;;;;;;;4958888;28;100007;-54
2024/04/06 10:59:17;;;;;;;2.10;0.30;;;;;;;;;;4958501;28;100277;-52
2024/04/06 11:01:42;;;;;;;2.30;0.20;;;;;;;;;;4956075;28;102180;-52
2024/04/06 11:04:11;;;;;;;4.18;0.30;;;;;;;;;;4959260;28;100237;-52
2024/04/06 11:06:37;;;;;;;2.85;0.20;;;;;;;;;;4955392;28;102410;-52
2024/04/06 11:09:06;;;;;;;5.88;0.30;;;;;;;;;;4956531;28;102420;-50
2024/04/06 11:11:31;;;;;;;7.63;0.68;;;;;;;;;;4957409;28;100166;-50
2024/04/06 11:13:57;;;;;;;6.95;0.60;;;;;;;;;;4957660;28;100234;-52
2024/04/06 11:16:23;;;;;;;4.95;0.30;;;;;;;;;;4955191;28;102215;-53
2024/04/06 11:18:49;;;;;;;7.03;0.50;;;;;;;;;;4955152;28;100202;-54
2024/04/06 11:21:14;;;;;;;3.58;0.25;;;;;;;;;;4949756;28;100557;-52
2024/04/06 11:23:40;;;;;;;2.90;0.35;;;;;;;;;;4954667;28;100068;-52
2024/04/06 11:26:06;;;;;;;5.15;0.30;;;;;;;;;;4959526;28;101224;-54
2024/04/06 11:28:32;;;;;;;6.35;0.38;;;;;;;;;;4956757;28;100131;-55
2024/04/06 11:30:59;;;;;;;5.65;0.60;;;;;;;;;;4951978;28;102114;-54
2024/04/06 11:33:25;;;;;;;5.55;0.38;;;;;;;;;;4954115;28;100333;-50
2024/04/06 11:35:51;;;;;;;1.58;0.40;;;;;;;;;;4956355;28;101269;-50
2024/04/06 11:38:16;;;;;;;7.05;0.40;;;;;;;;;;4939032;28;101219;-54
2024/04/06 11:40:47;;;;;;;5.20;0.70;;;;;;;;;;4959085;28;100842;-53
2024/04/06 11:43:14;;;;;;;2.03;0.20;;;;;;;;;;4954060;28;100355;-51
2024/04/06 11:45:40;;;;;;;4.53;0.73;;;;;;;;;;4955395;28;100193;-51
2024/04/06 11:48:05;;;;;;;11.68;0.40;;;;;;;;;;4948453;28;100203;-52
2024/04/06 11:50:30;;;;;;;4.82;0.52;;;;;;;;;;4954738;28;102023;-52
2024/04/06 11:52:55;;;;;;;2.47;0.30;;;;;;;;;;4946490;28;100330;-53
2024/04/06 11:55:21;;;;;;;5.78;0.60;;;;;;;;;;4955546;28;101453;-52
2024/04/06 11:57:46;;;;;;;5.25;0.30;;;;;;;;;;4954354;28;100344;-51
2024/04/06 12:00:12;;;;;;;5.93;0.47;;;;;;;;;;4953319;28;100336;-51
2024/04/06 12:02:38;;;;;;;2.67;0.20;;;;;;;;;;4948884;28;99837;-53
2024/04/06 12:05:03;;;;;;;3.88;0.30;;;;;;;;;;4959022;28;100124;-53
2024/04/06 12:07:29;;;;;;;4.35;0.40;;;;;;;;;;4959724;28;101283;-51
2024/04/06 12:09:54;;;;;;;9.43;0.60;;;;;;;;;;4961881;28;101633;-52
2024/04/06 12:12:20;;;;;;;5.18;0.57;;;;;;;;;;4957352;28;101361;-52
2024/04/06 12:14:45;;;;;;;3.67;0.40;;;;;;;;;;4958195;28;101940;-54
2024/04/06 12:17:19;;;;;;;5.18;0.40;;;;;;;;;;4952691;28;101369;-54
2024/04/06 12:19:44;;;;;;;5.30;0.55;;;;;;;;;;4955050;28;100220;-51
2024/04/06 12:22:10;;;;;;;7.10;0.40;;;;;;;;;;4954530;28;100218;-51
2024/04/06 12:24:40;;;;;;;4.63;0.30;;;;;;;;;;4957921;28;100912;-52
2024/04/06 12:27:05;;;;;;;4.55;0.52;;;;;;;;;;4958097;28;100075;-52
2024/04/06 12:29:31;;;;;;;3.72;0.30;;;;;;;;;;4959254;28;100470;-50
2024/04/06 12:31:56;;;;;;;2.95;0.73;;;;;;;;;;4956148;28;100259;-50
2024/04/06 12:34:22;;;;;;;3.50;0.70;;;;;;;;;;4959434;28;100189;-51
2024/04/06 12:36:47;;;;;;;9.13;1.20;;;;;;;;;;4951553;28;103181;-49
2024/04/06 12:39:13;;;;;;;4.75;0.28;;;;;;;;;;4958011;28;100301;-54
2024/04/06 12:41:38;;;;;;;3.95;0.40;;;;;;;;;;4928591;28;101085;-52
2024/04/06 12:44:03;;;;;;;4.25;1.00;;;;;;;;;;4951529;28;102655;-50
2024/04/06 12:46:29;;;;;;;6.53;0.50;;;;;;;;;;4955194;28;100224;-50
2024/04/06 12:48:54;;;;;;;5.07;0.55;;;;;;;;;;4959163;28;99758;-50
2024/04/06 12:51:19;;;;;;;5.70;0.50;;;;;;;;;;4941326;28;102937;-51
2024/04/06 12:53:45;;;;;;;6.38;0.90;;;;;;;;;;4950314;28;100276;-52
2024/04/06 12:56:10;;;;;;;9.30;0.47;;;;;;;;;;4957278;28;100942;-54
2024/04/06 12:58:36;;;;;;;12.25;0.95;;;;;;;;;;4951527;28;100393;-51
2024/04/06 13:01:04;;;;;;;5.53;0.50;;;;;;;;;;4954237;28;101329;-51
2024/04/06 13:03:29;;;;;;;6.63;0.60;;;;;;;;;;4955708;28;101231;-51
2024/04/06 13:05:59;;;;;;;3.67;0.70;;;;;;;;;;4958367;28;100047;-52
2024/04/06 13:08:25;;;;;;;7.22;0.93;;;;;;;;;;4957314;28;100289;-52
2024/04/06 13:10:50;;;;;;;7.82;0.80;;;;;;;;;;4960858;28;101266;-51
2024/04/06 13:13:16;;;;;;;6.50;0.60;;;;;;;;;;4950761;28;106877;-51
2024/04/06 13:15:43;;;;;;;4.22;0.43;;;;;;;;;;4955767;28;100489;-51
2024/04/06 13:18:09;;;;;;;7.13;0.80;;;;;;;;;;4957312;28;100345;-51
2024/04/06 13:20:34;;;;;;;10.75;0.90;;;;;;;;;;4958217;28;100156;-52
2024/04/06 13:22:59;;;;;;;5.30;1.10;;;;;;;;;;4960508;28;100064;-49
2024/04/06 13:25:25;;;;;;;3.42;0.80;;;;;;;;;;4960544;28;100710;-50
2024/04/06 13:27:50;;;;;;;5.78;0.70;;;;;;;;;;4949959;28;99869;-51
2024/04/06 13:30:18;;;;;;;8.80;0.60;;;;;;;;;;4950245;28;101484;-50
2024/04/06 13:32:43;;;;;;;9.18;0.90;;;;;;;;;;4952123;28;100959;-51
2024/04/06 13:35:09;;;;;;;5.97;0.57;;;;;;;;;;4949666;28;100686;-52
2024/04/06 13:37:34;;;;;;;6.80;0.90;;;;;;;;;;4949010;28;100184;-52
2024/04/06 13:40:07;;;;;;;5.75;0.93;;;;;;;;;;4951199;28;101253;-49
2024/04/06 13:42:38;;;;;;;6.72;0.77;;;;;;;;;;4933939;28;101009;-49
2024/04/06 13:45:14;;;;;;;8.57;0.75;;;;;;;;;;4960424;28;100190;-49
2024/04/06 13:47:44;;;;;;;8.40;0.75;;;;;;;;;;4955345;28;102277;-50
2024/04/06 13:50:09;;;;;;;10.23;0.68;;;;;;;;;;4950224;28;101561;-49
2024/04/06 13:52:35;;;;;;;7.45;0.50;;;;;;;;;;4956282;28;100314;-49
2024/04/06 13:55:00;;;;;;;5.43;0.70;;;;;;;;;;4938033;28;100102;-48
2024/04/06 13:57:26;;;;;;;10.00;1.33;;;;;;;;;;4938479;28;102100;-48
2024/04/06 13:59:51;;;;;;;5.70;0.70;;;;;;;;;;4955994;28;100203;-49
2024/04/06 14:02:17;;;;;;;6.93;0.95;;;;;;;;;;4958728;28;100797;-49
2024/04/06 14:04:42;;;;;;;13.88;1.85;;;;;;;;;;4955393;28;100299;-51
2024/04/06 14:07:08;;;;;;;7.63;0.60;;;;;;;;;;4946004;28;101315;-52
2024/04/06 14:09:33;;;;;;;4.80;0.70;;;;;;;;;;4959879;28;100346;-50
2024/04/06 14:11:58;;;;;;;9.23;1.02;;;;;;;;;;4955534;28;100950;-50
2024/04/06 14:14:28;;;;;;;11.07;0.57;;;;;;;;;;4957471;28;100087;-51
2024/04/06 14:16:54;;;;;;;8.40;0.65;;;;;;;;;;4949232;28;102573;-51
2024/04/06 14:19:22;;;;;;;9.90;0.88;;;;;;;;;;4958835;28;100245;-51
2024/04/06 14:21:51;;;;;;;7.82;0.50;;;;;;;;;;4957749;28;99732;-50
2024/04/06 14:24:17;;;;;;;4.03;0.80;;;;;;;;;;4954688;28;100803;-50